Time,TemperatureF,DewpointF,PressureIn,WindDirection,WindDirectionDegrees,WindSpeedMPH,WindSpeedGustMPH,Humidity,HourlyPrecipIn,Conditions,Clouds,dailyrainin,SolarRadiationWatts/m^2,SoftwareType,DateUTC
2013-01-22 00:22:00,0.0,-5.0,30.36,ENE,66,4.0,6.0,81,-99.99,,,-99.99,-0.100000,,2013-01-22 07:22:00,
2013-01-22 01:52:00,-1.0,-6.0,30.36,ENE,61,5.0,6.0,82,-99.99,,,-99.99,-0.100000,,2013-01-22 08:52:00,
2013-01-22 04:11:00,-3.0,-8.0,30.37,NE,47,5.0,6.0,78,-99.99,,,-99.99,0.000000,,2013-01-22 11:11:00,
2013-01-22 04:32:00,-2.0,-7.0,30.36,ENE,75,5.0,6.0,81,-99.99,,,-99.99,-0.100000,,2013-01-22 11:32:00,
2013-01-22 05:32:00,-3.0,-7.0,30.35,ENE,68,4.0,5.0,80,-99.99,,,-99.99,0.000000,,2013-01-22 12:32:00,
2013-01-22 06:22:00,-4.0,-9.0,30.35,East,100,6.0,7.0,79,-99.99,,,-99.99,0.000000,,2013-01-22 13:22:00,
2013-01-22 06:42:00,-5.0,-9.0,30.35,East,85,5.0,6.0,78,-99.99,,,-99.99,0.100000,,2013-01-22 13:42:00,
2013-01-22 06:52:00,-5.0,-9.0,30.35,East,85,5.0,6.0,78,-99.99,,,-99.99,0.100000,,2013-01-22 13:52:00,
2013-01-22 07:42:00,-5.0,-10.0,30.36,East,86,5.0,7.0,78,-99.99,,,-99.99,-0.100000,,2013-01-22 14:42:00,
2013-01-22 07:52:00,-5.0,-10.0,30.36,East,86,5.0,7.0,78,-99.99,,,-99.99,-0.100000,,2013-01-22 14:52:00,
2013-01-22 08:33:00,-6.0,-11.0,30.36,ENE,73,6.0,8.0,78,-99.99,,,-99.99,9.900000,,2013-01-22 15:33:00,
2013-01-22 08:42:00,-5.0,-10.0,30.36,East,82,6.0,8.0,79,-99.99,,,-99.99,23.700001,,2013-01-22 15:42:00,
2013-01-22 10:22:00,-1.0,-5.0,30.38,East,83,5.0,6.0,81,-99.99,,,-99.99,329.200012,,2013-01-22 17:22:00,
2013-01-22 14:02:00,13.0,5.0,30.35,East,80,8.0,12.0,69,-99.99,,,-99.99,523.900024,,2013-01-22 21:02:00,
2013-01-22 14:52:00,16.0,6.0,30.33,ENE,76,7.0,9.0,65,-99.99,,,-99.99,441.600006,,2013-01-22 21:52:00,
2013-01-22 16:22:00,18.0,8.0,30.32,East,87,5.0,8.0,64,-99.99,,,-99.99,240.399994,,2013-01-22 23:22:00,
2013-01-22 18:12:00,15.0,7.0,30.30,ENE,75,6.0,7.0,68,-99.99,,,-99.99,0.400000,,2013-01-23 01:12:00,
2013-01-22 19:22:00,12.0,6.0,30.30,ENE,71,6.0,7.0,75,-99.99,,,-99.99,-0.100000,,2013-01-23 02:22:00,
2013-01-22 20:02:00,10.0,4.0,30.29,ENE,73,7.0,9.0,76,-99.99,,,-99.99,0.000000,,2013-01-23 03:02:00,
2013-01-22 20:12:00,10.0,4.0,30.29,East,81,7.0,9.0,75,-99.99,,,-99.99,-0.100000,,2013-01-23 03:12:00,
2013-01-22 20:22:00,6.0,0.0,30.29,ENE,65,6.0,7.0,74,-99.99,,,-99.99,0.000000,,2013-01-23 03:22:00,
2013-01-22 20:32:00,3.0,-1.0,30.29,ENE,67,4.0,5.0,79,-99.99,,,-99.99,-0.100000,,2013-01-23 03:32:00,
2013-01-22 20:42:00,6.0,1.0,30.29,ENE,65,5.0,6.0,80,-99.99,,,-99.99,-0.200000,,2013-01-23 03:42:00,
2013-01-22 20:52:00,6.0,2.0,30.30,ENE,69,4.0,5.0,83,-99.99,,,-99.99,-0.100000,,2013-01-23 03:52:00,
2013-01-22 21:22:00,6.0,1.0,30.30,East,98,6.0,7.0,80,-99.99,,,-99.99,-0.100000,,2013-01-23 04:22:00,
2013-01-22 21:32:00,7.0,3.0,30.29,East,96,6.0,7.0,82,-99.99,,,-99.99,-0.100000,,2013-01-23 04:32:00,
2013-01-22 21:42:00,8.0,3.0,30.29,East,89,6.0,7.0,78,-99.99,,,-99.99,-0.100000,,2013-01-23 04:42:00,
2013-01-22 21:52:00,8.0,3.0,30.29,ENE,76,6.0,7.0,78,-99.99,,,-99.99,-0.100000,,2013-01-23 04:52:00,
2013-01-22 22:03:00,9.0,3.0,30.29,ENE,65,6.0,7.0,78,-99.99,,,-99.99,-0.100000,,2013-01-23 05:03:00,
2013-01-22 22:22:00,7.0,2.0,30.30,NNE,24,5.0,6.0,80,-99.99,,,-99.99,-0.200000,,2013-01-23 05:22:00,
2013-01-22 22:32:00,9.0,3.0,30.29,ENE,63,6.0,7.0,78,-99.99,,,-99.99,-0.100000,,2013-01-23 05:32:00,
2013-01-22 22:42:00,7.0,1.0,30.29,ENE,58,5.0,6.0,77,-99.99,,,-99.99,0.000000,,2013-01-23 05:42:00,
2013-01-22 22:52:00,4.0,0.0,30.29,ENE,72,4.0,5.0,81,-99.99,,,-99.99,-0.100000,,2013-01-23 05:52:00,
2013-01-22 23:22:00,5.0,1.0,30.30,ENE,68,4.0,5.0,81,-99.99,,,-99.99,-0.100000,,2013-01-23 06:22:00,
2013-01-22 23:32:00,6.0,1.0,30.30,ENE,78,5.0,6.0,80,-99.99,,,-99.99,0.000000,,2013-01-23 06:32:00,
2013-01-22 23:42:00,4.0,0.0,30.30,East,83,4.0,5.0,85,-99.99,,,-99.99,0.000000,,2013-01-23 06:42:00,
2013-01-22 23:52:00,6.0,1.0,30.30,East,82,5.0,7.0,80,-99.99,,,-99.99,-0.100000,,2013-01-23 06:52:00,